Tuesday, October 23, 2018, 9:25 PM EDT
Back to Local

KDYL, Doylestown Airport

Location: Doylestown, PA, United States Lat: 40.333
Local Time: 9:25 PM EDT ( 1:25 GMT) Lon: -75.117
Time Zone: US/Eastern Elev: 393 ft

Show me the last for .
Show Decoded

2018-10-23 20:54 METAR KDYL 240054Z AUTO 34004KT 10SM CLR 11/01 A3001 RMK AO2 SLP165 T01060006 =
2018-10-23 19:54 METAR KDYL 232354Z AUTO 33008G15KT 10SM CLR 12/00 A2999 RMK AO2 SLP159 T01220000
                 10189 20122 51027 =
2018-10-23 18:54 METAR KDYL 232254Z AUTO 33011G19KT 10SM CLR 14/01 A2998 RMK AO2 SLP152 T01440006
                 =
2018-10-23 17:54 METAR KDYL 232154Z AUTO 29009G15KT 10SM BKN085 BKN110 16/02 A2994 RMK AO2 SLP140
                 T01560017 =
2018-10-23 16:54 METAR KDYL 232054Z AUTO 24008KT 10SM SCT090 OVC110 18/01 A2991 RMK AO2 SLP129
                 T01830011 56011 =
2018-10-23 15:54 METAR KDYL 231954Z AUTO 24007G19KT 10SM SCT095 SCT110 17/01 A2992 RMK AO2 SLP132
                 T01720011 =
2018-10-23 14:54 METAR KDYL 231854Z AUTO 22007G17KT 10SM FEW090 18/01 A2993 RMK AO2 SLP134
                 T01830011 =
2018-10-23 13:54 METAR KDYL 231754Z AUTO 23006G15KT 10SM CLR 18/04 A2994 RMK AO2 SLP140 T01780044
                 10178 20061 58031 =
2018-10-23 12:54 METAR KDYL 231654Z AUTO 24009KT 10SM CLR 17/04 A2998 RMK AO2 SLP155 T01670044 =
2018-10-23 11:54 METAR KDYL 231554Z AUTO 24006KT 10SM CLR 15/05 A3002 RMK AO2 SLP167 T01500050 =
2018-10-23 10:54 METAR KDYL 231454Z AUTO 22008KT 10SM CLR 13/06 A3004 RMK AO2 SLP174 T01280056
                 58005 =
2018-10-23 09:54 METAR KDYL 231354Z AUTO 21004KT 10SM FEW075 11/06 A3006 RMK AO2 SLP181 T01060061
                 =
2018-10-23 08:54 METAR KDYL 231254Z AUTO 00000KT 10SM BKN075 08/06 A3006 RMK AO2 SLP182 T00780056
                 =
2018-10-23 07:54 METAR KDYL 231154Z AUTO 00000KT 10SM OVC075 06/04 A3005 RMK AO2 SLP180 T00610044
                 10061 20056 58007 =
2018-10-23 06:54 METAR KDYL 231054Z AUTO 00000KT 10SM OVC080 06/04 A3006 RMK AO2 SLP183 T00610044
                 =
2018-10-23 05:54 METAR KDYL 230954Z AUTO 00000KT 10SM SCT075 OVC090 06/04 A3007 RMK AO2 SLP185
                 T00610039 =
2018-10-23 04:54 METAR KDYL 230854Z AUTO 00000KT 10SM OVC075 06/04 A3007 RMK AO2 SLP187 T00610039
                 58018 =
2018-10-23 03:54 METAR KDYL 230754Z AUTO 00000KT 10SM OVC090 06/04 A3009 RMK AO2 SLP192 T00610039
                 =
2018-10-23 02:54 METAR KDYL 230654Z AUTO 00000KT 10SM OVC080 06/04 A3011 RMK AO2 SLP199 T00610039
                 =
2018-10-23 01:54 METAR KDYL 230554Z AUTO 00000KT 10SM OVC090 06/04 A3013 RMK AO2 SLP205 T00610039
                 10083 20044 58011 =
2018-10-23 00:54 METAR KDYL 230454Z AUTO 00000KT 10SM OVC080 06/04 A3014 RMK AO2 SLP210 T00560039
                 401220006 =
2018-10-22 23:54 METAR KDYL 230354Z AUTO 00000KT 10SM OVC080 06/03 A3016 RMK AO2 SLP216 T00560033
                 =
2018-10-22 22:54 METAR KDYL 230254Z AUTO 00000KT 10SM CLR 05/02 A3016 RMK AO2 SLP218 T00500022
                 51001 =
2018-10-22 21:54 METAR KDYL 230154Z AUTO 17003KT 10SM CLR 06/02 A3016 RMK AO2 SLP216 T00560017 =

Support USWX by starting your Amazon purchase here.